Weather at Maarud

Public forecast

Using degrees Celsius for public forecast. Weather courtesy of forecast.io.

Closest aviation weather report (METAR) to Maarud

Closest report is Oslo Gardermoen Airport, 13.9 nm (25.7 km) W. Retrieved 2021/04/11 23:50 UTC (10 minutes ago):

ENGM 112350Z 01010KT 5000 -SN SCT004 BKN020 00/M00 Q1013

Closest aviation forecast (TAF) to Maarud

Closest forecast is Oslo Gardermoen Airport, 13.9 nm (25.7 km) W. Retrieved 2021-04-12 00:57 UTC (0 seconds ago):

TAF ENGM 112300Z 1200/1224 04012KT 8000 -SNRA SCT008 BKN015 TEMPO 1200/1215 1200 SN VV004 TEMPO 1215/1224 1200 SHSN BKN008 FEW020CB